createdAt,value
2023-02-17T00:05:45.188Z,4143.6
2023-02-17T00:11:20.046Z,4144.5
2023-02-17T00:16:57.741Z,4143.3
2023-02-17T00:22:34.658Z,4145.8
2023-02-17T00:28:12.590Z,4146.1
2023-02-17T00:33:49.620Z,4144.6
2023-02-17T00:39:26.609Z,4141.6
2023-02-17T00:45:02.889Z,4144
2023-02-17T00:50:39.714Z,4143.6
2023-02-17T00:56:16.192Z,4144.5
2023-02-17T01:02:16.853Z,4143.1
2023-02-17T01:08:14.354Z,4138.6
2023-02-17T01:14:32.763Z,4140.6
2023-02-17T01:20:42.369Z,4141.3
2023-02-17T01:26:20.040Z,4141.9
2023-02-17T01:31:55.878Z,4138.3
2023-02-17T01:37:52.895Z,4137.6
2023-02-17T01:43:28.545Z,4140.4
2023-02-17T01:49:08.230Z,4137.4
2023-02-17T01:56:20.608Z,4136.7
2023-02-17T02:01:58.080Z,4137.4
2023-02-17T02:07:55.103Z,4127.2
2023-02-17T02:13:30.638Z,4134.7
2023-02-17T02:19:06.489Z,4138.4
2023-02-17T02:25:06.185Z,4135.9
2023-02-17T02:30:54.030Z,4132.1
2023-02-17T02:36:34.171Z,4134.9
2023-02-17T02:42:15.773Z,4130
2023-02-17T02:48:11.864Z,4132.9
2023-02-17T02:53:51.789Z,4133.2
2023-02-17T02:59:26.807Z,4134.2
2023-02-17T03:05:01.874Z,4129.9
2023-02-17T03:10:37.136Z,4132.7
2023-02-17T03:16:17.928Z,4131.1
2023-02-17T03:21:53.242Z,4128.9
2023-02-17T03:27:28.657Z,4128
2023-02-17T03:33:04.093Z,4127
2023-02-17T03:38:38.872Z,4127
2023-02-17T03:44:17.159Z,4127.4
2023-02-17T03:49:54.331Z,4126.4
2023-02-17T03:55:34.077Z,4125.9
2023-02-17T04:01:33.703Z,4127
2023-02-17T04:07:31.316Z,4124.4
2023-02-17T04:13:07.406Z,4127
2023-02-17T04:18:45.140Z,4126.4
2023-02-17T04:24:21.095Z,4128.4
2023-02-17T04:29:56.713Z,4125.5
2023-02-17T04:35:34.193Z,4120.2
2023-02-17T04:41:10.477Z,4123.7
2023-02-17T04:46:47.003Z,4123.3
2023-02-17T04:52:30.793Z,4122.8
2023-02-17T04:58:14.984Z,4121.2
2023-02-17T05:03:56.510Z,4119.8
2023-02-17T05:09:35.003Z,4120.7
2023-02-17T05:15:28.330Z,4122.8
2023-02-17T05:21:24.215Z,4119.3
2023-02-17T05:26:59.498Z,4122
2023-02-17T05:32:34.791Z,4119.3
2023-02-17T05:38:21.535Z,4121.5
2023-02-17T05:43:56.714Z,4119.3
2023-02-17T05:49:36.299Z,4119.3
2023-02-17T05:55:11.795Z,4118.7
2023-02-17T06:00:46.698Z,4120.7
2023-02-17T06:06:43.598Z,4115.6
2023-02-17T06:12:25.788Z,4116.6
2023-02-17T06:18:02.120Z,4115.5
2023-02-17T06:23:58.852Z,4116.1
2023-02-17T06:30:05.370Z,4116.8
2023-02-17T06:36:11.555Z,4116
2023-02-17T06:42:17.015Z,4114.1
2023-02-17T06:47:52.629Z,4112.5
2023-02-17T06:53:42.066Z,4114.6
2023-02-17T06:59:17.302Z,4111.6
2023-02-17T07:04:58.520Z,4110.3
2023-02-17T07:10:34.801Z,4114.8
2023-02-17T07:16:21.605Z,4117.1
2023-02-17T07:21:57.978Z,4123.9
2023-02-17T07:27:33.330Z,4123.7
2023-02-17T07:33:08.432Z,4128.4
2023-02-17T07:38:45.209Z,4145.8
2023-02-17T07:45:21.281Z,4171.3
2023-02-17T07:51:14.456Z,4146.8
2023-02-17T07:56:50.963Z,4189.2
2023-02-17T08:02:44.851Z,4168.6
2023-02-17T08:08:42.316Z,4171.9
2023-02-17T08:14:27.936Z,4178.1
2023-02-17T08:20:18.513Z,4168.1
2023-02-17T08:25:55.415Z,4179.1
2023-02-17T08:31:32.395Z,4185.8
2023-02-17T08:37:17.838Z,4185.5
2023-02-17T08:42:53.889Z,4210.3
2023-02-17T08:48:29.697Z,4214.1
2023-02-17T08:54:05.515Z,4200.7
2023-02-17T08:59:40.869Z,4189.7
2023-02-17T09:05:16.198Z,4177.5
2023-02-17T09:10:51.600Z,4204.6
2023-02-17T09:16:41.893Z,4198.1
2023-02-17T09:22:37.053Z,4196
2023-02-17T09:28:14.370Z,4187.5
2023-02-17T09:33:51.504Z,4190.2
2023-02-17T09:39:33.172Z,4212.6
2023-02-17T09:45:15.911Z,4189.5
2023-02-17T09:50:55.070Z,4214.3
2023-02-17T09:56:36.948Z,4202.9
2023-02-17T10:02:12.549Z,4189.8
2023-02-17T10:07:57.707Z,4202.7
2023-02-17T10:13:33.518Z,4188.7
2023-02-17T10:19:08.966Z,4211.8
2023-02-17T10:24:45.213Z,4194.4
2023-02-17T10:30:30.135Z,4214
2023-02-17T10:36:14.435Z,4197.5
2023-02-17T10:41:53.252Z,4195
2023-02-17T10:47:31.721Z,4220.2
2023-02-17T10:53:16.275Z,4205.3
2023-02-17T10:58:53.896Z,4202.1
2023-02-17T11:04:30.402Z,4213.6
2023-02-17T11:10:40.497Z,4202.4
2023-02-17T11:16:16.691Z,4201.2
2023-02-17T11:21:52.940Z,4222.8
2023-02-17T11:27:29.804Z,4210.3
2023-02-17T11:33:17.098Z,4200.2
2023-02-17T11:38:55.971Z,4207.1
2023-02-17T11:44:31.539Z,4196.9
2023-02-17T11:50:11.259Z,4215.8
2023-02-17T11:56:10.031Z,4198.4
2023-02-17T12:01:51.114Z,4229.4
2023-02-17T12:07:26.678Z,4214
2023-02-17T12:13:08.924Z,4202.7
2023-02-17T12:18:53.622Z,4200.9
2023-02-17T12:24:29.748Z,4209.6
2023-02-17T12:30:05.264Z,4208.3
2023-02-17T12:35:48.792Z,4209.8
2023-02-17T12:41:24.352Z,4218
2023-02-17T12:47:03.800Z,4205.8
2023-02-17T12:52:43.169Z,4206.9
2023-02-17T12:58:38.443Z,4218.3
2023-02-17T13:04:17.970Z,4214.6
2023-02-17T13:10:02.246Z,4221.7
2023-02-17T13:15:50.372Z,4207.3
2023-02-17T13:21:26.383Z,4210.6
2023-02-17T13:27:22.284Z,4217.8
2023-02-17T13:33:20.142Z,4210.4
2023-02-17T13:39:01.086Z,4225.5
2023-02-17T13:44:42.762Z,4224.7
2023-02-17T13:50:34.450Z,4217.5
2023-02-17T13:56:13.518Z,4223.8
2023-02-17T14:01:52.917Z,4221.7
2023-02-17T14:07:50.366Z,4224.2
2023-02-17T14:13:27.224Z,4222.7
2023-02-17T14:19:11.601Z,4219.2
2023-02-17T14:25:56.054Z,4213.1
2023-02-17T14:31:54.910Z,4226.5
2023-02-17T14:37:34.510Z,4215.1
2023-02-17T14:43:09.781Z,4224
2023-02-17T14:48:45.066Z,4220.5
2023-02-17T14:54:20.234Z,4230.2
2023-02-17T14:59:55.786Z,4227.7
2023-02-17T15:05:52.735Z,4229.4
2023-02-17T15:11:26.916Z,4226.4
2023-02-17T15:17:19.756Z,4228.2
2023-02-17T15:23:12.038Z,4216.5
2023-02-17T15:29:05.321Z,4216.3
2023-02-17T15:35:01.758Z,4223
2023-02-17T15:40:53.769Z,4210.3
2023-02-17T15:46:58.254Z,4203.9
2023-02-17T15:52:44.649Z,4211.3
2023-02-17T15:58:19.695Z,4199.6
2023-02-17T16:03:58.667Z,4205.1
2023-02-17T16:09:33.958Z,4197.5
2023-02-17T16:15:30.136Z,4200.1
2023-02-17T16:21:17.671Z,4203.2
2023-02-17T16:27:13.854Z,4202.9
2023-02-17T16:32:49.376Z,4201.4
2023-02-17T16:38:28.069Z,4199.6
2023-02-17T16:44:17.044Z,4198.4
2023-02-17T16:50:07.742Z,4196.9
2023-02-17T16:56:05.773Z,4192.9
2023-02-17T17:01:46.326Z,4193.4
2023-02-17T17:07:43.910Z,4189.8
2023-02-17T17:13:38.071Z,4193.5
2023-02-17T17:19:15.696Z,4189.5
2023-02-17T17:24:53.783Z,4188.7
2023-02-17T17:30:31.254Z,4189.3
2023-02-17T17:36:09.593Z,4186
2023-02-17T17:42:08.858Z,4188.2
2023-02-17T17:47:48.689Z,4189.2
2023-02-17T17:53:23.754Z,4185.2
2023-02-17T17:59:02.619Z,4182.8
2023-02-17T18:04:39.039Z,4183.6
2023-02-17T18:10:15.504Z,4185.7
2023-02-17T18:15:50.876Z,4183.3
2023-02-17T18:21:26.056Z,4181
2023-02-17T18:27:01.605Z,4182.1
2023-02-17T18:32:36.740Z,4185
2023-02-17T18:38:12.905Z,4180.8
2023-02-17T18:43:50.748Z,4180.8
2023-02-17T18:49:25.878Z,4180.3
2023-02-17T18:55:01.981Z,4179.1
2023-02-17T19:00:40.768Z,4179.3
2023-02-17T19:06:22.582Z,4180
2023-02-17T19:12:09.834Z,4181
2023-02-17T19:18:03.512Z,4179.3
2023-02-17T19:23:38.680Z,4180.3
2023-02-17T19:29:14.052Z,4179.3
2023-02-17T19:34:49.148Z,4180.3
2023-02-17T19:40:25.228Z,4181
2023-02-17T19:46:00.631Z,4177.8
2023-02-17T19:51:36.377Z,4177.8
2023-02-17T19:57:11.297Z,4176.6
2023-02-17T20:02:47.601Z,4178.1
2023-02-17T20:08:45.181Z,4173.8
2023-02-17T20:14:17.906Z,4175.6
2023-02-17T20:19:52.912Z,4176.1
2023-02-17T20:25:28.332Z,4176.8
2023-02-17T20:31:06.297Z,4175.1
2023-02-17T20:36:41.754Z,4175.6
2023-02-17T20:42:17.335Z,4175.1
2023-02-17T20:47:52.654Z,4173.1
2023-02-17T20:53:28.680Z,4175.1
2023-02-17T20:59:03.974Z,4173.1
2023-02-17T21:04:39.153Z,4176.1
2023-02-17T21:10:14.292Z,4172.6
2023-02-17T21:15:50.960Z,4173.4
2023-02-17T21:21:25.867Z,4173.3
2023-02-17T21:27:02.077Z,4169.7
2023-02-17T21:32:52.040Z,4169.6
2023-02-17T21:38:27.400Z,4172.9
2023-02-17T21:44:02.673Z,4170.2
2023-02-17T21:49:38.982Z,4171.3
2023-02-17T21:55:14.222Z,4168.4
2023-02-17T22:00:50.026Z,4169.2
2023-02-17T22:06:46.735Z,4166.2
2023-02-17T22:12:22.929Z,4167.6
2023-02-17T22:17:58.050Z,4166.6
2023-02-17T22:23:35.947Z,4165.9
2023-02-17T22:29:10.872Z,4165.9
2023-02-17T22:34:46.200Z,4164.9
2023-02-17T22:40:21.326Z,4166.7
2023-02-17T22:45:57.268Z,4163.2
2023-02-17T22:51:33.411Z,4167.2
2023-02-17T22:57:09.126Z,4164.9
2023-02-17T23:02:50.733Z,4166.2
2023-02-17T23:08:47.607Z,4160
2023-02-17T23:14:26.551Z,4163.2
2023-02-17T23:20:01.703Z,4162.2
2023-02-17T23:25:41.399Z,4161.7
2023-02-17T23:31:19.724Z,4160.7
2023-02-17T23:36:55.195Z,4159.4
2023-02-17T23:42:30.224Z,4160.7
2023-02-17T23:48:06.233Z,4158.9
2023-02-17T23:53:42.676Z,4159.5
2023-02-17T23:59:20.778Z,4156.7
